Livermore, California
Current Conditions -  °F | °C
As of 3:53 PM on Friday 28 Nov 2014 (Local Time) from KLVK Reporting Station
Clear Clear  
Wind Chill: 66°   Ceiling: Unl
Heat Index: 66°   Visibility: 10mi
Dew Point: 48°   Wind: 9mph
Humidity: 52%   Direction: 280°W
Pressure: 29.89"   Gusts: NA
Location:  37.68°N, 121.75°W
Report Text: KLVK 282353Z 28008KT 10SM CLR 19/09 A2989 RMK AO2 SLP121 T01890089 10206 20106 56017
Loading
Personal Weather Stations






























Interactive Weather Map New forecast layout! Learn more

10-Day Weather Forecast

Advertisements
Track Severe Weather on mobile